METAR Data
IDs: Format: Raw Decoded Include TAF

Data at: 0115 UTC 06 Dec 2019

KCHS 060056Z 00000KT 10SM CLR 10/04 A3019 RMK AO2 SLP222 T01000044
KCHS 052356Z 18004KT 10SM CLR 11/04 A3017 RMK AO2 SLP216 T01060044 10194 20083 53025
KCHS 052256Z 15005KT 10SM FEW200 12/01 A3014 RMK AO2 SLP207 T01170011
KCHS 052156Z 35004KT 10SM CLR 16/M03 A3012 RMK AO2 SLP198 T01611033
KCHS 052056Z 31003KT 10SM CLR 19/M04 A3010 RMK AO2 SLP191 T01891039 53005
KCHS 051956Z 32004KT 10SM CLR 19/M04 A3008 RMK AO2 SLP186 T01891039
KCHS 051856Z 02008KT 10SM CLR 18/M06 A3008 RMK AO2 SLP185 T01831061
KCHS 051756Z 04007KT 10SM FEW200 18/M04 A3008 RMK AO2 SLP186 T01781039 10183 20050 58009
KCHS 051656Z 35010KT 10SM FEW200 17/M02 A3010 RMK AO2 SLP192 T01721022
KCHS 051556Z 01010KT 10SM FEW200 16/M02 A3011 RMK AO2 SLP197 T01561017
KCHS 051456Z 35008KT 10SM SCT150 14/M01 A3011 RMK AO2 SLP194 T01391011 53031
KCHS 051356Z 33007KT 10SM BKN150 BKN250 09/01 A3007 RMK AO2 SLP182 T00940011 $
KCHS 051256Z 34004KT 10SM BKN120 BKN250 08/02 A3004 RMK AO2 SLP172 T00780022 $
KCHS 051156Z 32007KT 10SM FEW100 SCT250 07/01 A3002 RMK AO2 SLP163 T00670006 10089 20067 53031 $
KCHS 051056Z 30008KT 10SM SCT250 08/01 A2998 RMK AO2 SLP152 T00780006 $
KCHS 050956Z 30009KT 10SM SCT250 08/01 A2995 RMK AO2 SLP141 T00780011 $
KCHS 050856Z 28006KT 10SM BKN250 08/01 A2992 RMK AO2 SLP132 T00830011 51007 $
KCHS 050756Z 28006KT 10SM BKN250 09/01 A2992 RMK AO2 SLP129 T00890011 $
KCHS 050656Z 27006KT 10SM BKN250 09/01 A2991 RMK AO2 SLP129 T00890011
KCHS 050556Z 26006KT 10SM BKN250 09/01 A2990 RMK AO2 SLP124 T00890011 10117 20083 51004
KCHS 050456Z 27007KT 10SM SCT200 09/01 A2989 RMK AO2 SLP122 T00890011 401610028
KCHS 050356Z 26006KT 10SM SCT200 09/01 A2990 RMK AO2 SLP123 T00890011
KCHS 050256Z 26007KT 10SM SCT200 10/01 A2989 RMK AO2 SLP120 T01000011 51016
KCHS 050156Z 25006KT 10SM SCT200 09/01 A2987 RMK AO2 SLP115 T00940011
KCHS 050056Z 25005KT 10SM SCT200 10/01 A2987 RMK AO2 SLP113 T01000011
KCHS 042356Z 26007KT 10SM SCT200 11/02 A2984 RMK AO2 SLP104 T01110017 10161 20106 53021
KCHS 042256Z 25004KT 10SM FEW090 FEW200 12/01 A2982 RMK AO2 SLP096 T01220011
KCHS 042156Z 27005KT 10SM FEW180 14/01 A2979 RMK AO2 SLP088 T01440006
KCHS 042056Z 28008KT 10SM CLR 16/00 A2978 RMK AO2 SLP083 T01610000 55003
KCHS 041956Z 27010KT 10SM CLR 16/M01 A2978 RMK AO2 SLP083 T01611006
KCHS 041856Z 28010KT 10SM CLR 16/M02 A2977 RMK AO2 SLP081 T01561017
KCHS 041756Z 25008KT 10SM CLR 14/M01 A2979 RMK AO2 SLP086 T01441011 10150 20028 58030
KCHS 041656Z 30006KT 10SM CLR 13/01 A2983 RMK AO2 SLP099 T01280006
KCHS 041556Z 30008KT 10SM CLR 11/00 A2986 RMK AO2 SLP110 T01060000
KCHS 041456Z 32009KT 10SM CLR 08/00 A2988 RMK AO2 SLP116 T00830000 51019
KCHS 041356Z 30009KT 10SM CLR 06/01 A2986 RMK AO2 SLP111 T00560006